createdAt,value
2022-08-05T00:00:19.282Z,7.68
2022-08-05T00:03:06.801Z,6.80
2022-08-05T00:06:04.755Z,6.68
2022-08-05T00:08:34.910Z,7.07
2022-08-05T00:11:23.741Z,7.05
2022-08-05T00:13:55.835Z,6.35
2022-08-05T00:16:36.497Z,7.22
2022-08-05T00:19:11.605Z,6.60
2022-08-05T00:21:39.518Z,6.95
2022-08-05T00:24:16.197Z,7.00
2022-08-05T00:26:51.808Z,7.10
2022-08-05T00:29:25.823Z,6.85
2022-08-05T00:32:12.703Z,7.10
2022-08-05T00:35:05.326Z,6.72
2022-08-05T00:37:50.823Z,7.25
2022-08-05T00:40:28.002Z,6.47
2022-08-05T00:43:02.382Z,6.80
2022-08-05T00:45:42.905Z,6.80
2022-08-05T00:48:14.883Z,6.45
2022-08-05T00:50:46.022Z,6.45
2022-08-05T00:54:01.162Z,6.63
2022-08-05T00:56:05.577Z,6.65
2022-08-05T00:58:36.306Z,6.50
2022-08-05T01:01:08.493Z,6.68
2022-08-05T01:03:39.479Z,7.18
2022-08-05T01:06:14.054Z,7.10
2022-08-05T01:08:44.604Z,6.88
2022-08-05T01:11:36.833Z,6.95
2022-08-05T01:14:15.259Z,6.72
2022-08-05T01:16:52.511Z,7.07
2022-08-05T01:20:00.815Z,7.35
2022-08-05T01:22:54.199Z,6.90
2022-08-05T01:25:53.519Z,6.80
2022-08-05T01:28:43.861Z,7.13
2022-08-05T01:31:16.107Z,7.90
2022-08-05T01:34:02.899Z,7.28
2022-08-05T01:36:42.117Z,7.38
2022-08-05T01:39:45.589Z,7.72
2022-08-05T01:42:06.311Z,7.18
2022-08-05T01:44:39.388Z,7.72
2022-08-05T01:47:10.178Z,7.57
2022-08-05T01:50:02.309Z,7.50
2022-08-05T01:52:34.566Z,8.07
2022-08-05T01:55:07.255Z,7.97
2022-08-05T02:00:27.605Z,7.70
2022-08-05T02:03:06.648Z,7.43
2022-08-05T02:05:46.706Z,7.63
2022-08-05T02:08:16.291Z,7.60
2022-08-05T02:11:05.486Z,8.05
2022-08-05T02:13:54.676Z,7.63
2022-08-05T02:16:30.312Z,8.18
2022-08-05T02:19:07.599Z,7.95
2022-08-05T02:21:43.476Z,7.85
2022-08-05T02:24:19.831Z,7.72
2022-08-05T02:27:00.069Z,7.75
2022-08-05T02:29:59.152Z,8.50
2022-08-05T02:32:31.870Z,8.80
2022-08-05T02:35:13.704Z,8.32
2022-08-05T02:37:47.875Z,8.77
2022-08-05T02:40:24.353Z,8.45
2022-08-05T02:42:55.986Z,8.43
2022-08-05T02:45:25.417Z,8.43
2022-08-05T02:48:07.723Z,8.70
2022-08-05T02:50:44.078Z,8.43
2022-08-05T02:53:18.782Z,8.23
2022-08-05T02:55:59.556Z,9.23
2022-08-05T02:58:30.200Z,8.65
2022-08-05T03:01:02.526Z,8.93
2022-08-05T03:03:33.923Z,9.02
2022-08-05T03:06:55.389Z,8.48
2022-08-05T03:09:15.875Z,9.07
2022-08-05T03:11:56.273Z,9.63
2022-08-05T03:14:25.375Z,9.48
2022-08-05T03:16:54.266Z,9.15
2022-08-05T03:19:33.099Z,9.38
2022-08-05T03:22:04.892Z,9.32
2022-08-05T03:24:33.713Z,9.25
2022-08-05T03:27:02.782Z,8.60
2022-08-05T03:29:45.551Z,9.23
2022-08-05T03:32:19.631Z,9.23
2022-08-05T03:34:50.387Z,8.90
2022-08-05T03:37:20.995Z,9.05
2022-08-05T03:40:01.744Z,9.30
2022-08-05T03:42:32.352Z,9.38
2022-08-05T03:45:01.725Z,8.85
2022-08-05T03:47:35.257Z,8.38
2022-08-05T03:50:03.809Z,8.65
2022-08-05T03:54:59.234Z,8.40
2022-08-05T03:56:09.496Z,9.18
2022-08-05T03:58:28.920Z,8.77
2022-08-05T04:01:00.359Z,9.18
2022-08-05T04:03:29.459Z,8.40
2022-08-05T04:05:59.080Z,8.88
2022-08-05T04:08:36.720Z,8.52
2022-08-05T04:11:08.394Z,9.07
2022-08-05T04:13:51.328Z,8.77
2022-08-05T04:16:25.093Z,9.25
2022-08-05T04:18:54.800Z,8.93
2022-08-05T04:22:05.233Z,9.07
2022-08-05T04:24:19.443Z,8.38
2022-08-05T04:26:50.579Z,8.35
2022-08-05T04:29:18.473Z,8.15
2022-08-05T04:31:48.507Z,8.43
2022-08-05T04:34:32.485Z,7.97
2022-08-05T04:37:01.239Z,8.30
2022-08-05T04:39:32.371Z,7.60
2022-08-05T04:42:03.621Z,8.13
2022-08-05T04:44:31.396Z,7.78
2022-08-05T04:46:59.560Z,7.97
2022-08-05T04:49:39.105Z,7.72
2022-08-05T04:52:16.333Z,7.35
2022-08-05T04:54:44.185Z,7.35
2022-08-05T04:57:11.871Z,7.70
2022-08-05T04:59:40.535Z,7.13
2022-08-05T05:02:37.044Z,7.15
2022-08-05T05:05:02.344Z,7.43
2022-08-05T05:07:35.370Z,7.35
2022-08-05T05:10:06.345Z,7.20
2022-08-05T05:12:34.513Z,7.38
2022-08-05T05:15:06.106Z,6.78
2022-08-05T05:17:56.194Z,6.72
2022-08-05T05:20:28.288Z,6.72
2022-08-05T05:22:58.246Z,6.40
2022-08-05T05:25:33.059Z,7.13
2022-08-05T05:28:09.445Z,6.53
2022-08-05T05:30:38.199Z,6.55
2022-08-05T05:33:15.823Z,6.80
2022-08-05T05:35:48.360Z,6.43
2022-08-05T05:38:27.098Z,6.47
2022-08-05T05:40:56.926Z,6.50
2022-08-05T05:43:54.626Z,6.40
2022-08-05T05:46:17.441Z,5.93
2022-08-05T05:48:48.505Z,6.25
2022-08-05T05:51:24.381Z,6.05
2022-08-05T05:53:58.942Z,5.60
2022-08-05T05:59:07.521Z,5.72
2022-08-05T06:01:39.053Z,5.93
2022-08-05T06:04:13.045Z,6.10
2022-08-05T06:06:47.283Z,5.90
2022-08-05T06:09:24.845Z,5.55
2022-08-05T06:11:59.646Z,5.55
2022-08-05T06:14:31.480Z,5.40
2022-08-05T06:17:02.100Z,5.38
2022-08-05T06:19:56.938Z,5.70
2022-08-05T06:22:33.323Z,5.65
2022-08-05T06:25:25.012Z,5.72
2022-08-05T06:28:11.644Z,5.47
2022-08-05T06:30:38.222Z,5.50
2022-08-05T06:33:09.931Z,5.47
2022-08-05T06:36:03.643Z,5.32
2022-08-05T06:38:35.651Z,5.40
2022-08-05T06:41:05.588Z,5.00
2022-08-05T06:43:59.154Z,5.45
2022-08-05T06:46:30.301Z,5.22
2022-08-05T06:49:01.217Z,5.55
2022-08-05T06:51:30.924Z,5.05
2022-08-05T06:54:02.012Z,5.38
2022-08-05T06:56:34.387Z,5.15
2022-08-05T06:59:09.332Z,5.20
2022-08-05T07:01:40.665Z,5.35
2022-08-05T07:04:10.739Z,4.82
2022-08-05T07:06:41.734Z,5.60
2022-08-05T07:09:09.454Z,5.28
2022-08-05T07:11:40.015Z,5.00
2022-08-05T07:14:29.591Z,5.15
2022-08-05T07:18:01.835Z,5.30
2022-08-05T07:22:42.360Z,4.97
2022-08-05T07:25:54.237Z,4.60
2022-08-05T07:28:04.252Z,4.40
2022-08-05T07:30:38.377Z,4.00
2022-08-05T07:33:10.595Z,3.85
2022-08-05T07:36:03.942Z,3.80
2022-08-05T07:38:42.953Z,3.63
2022-08-05T07:42:08.921Z,3.47
2022-08-05T07:44:14.258Z,3.60
2022-08-05T07:46:49.661Z,3.40
2022-08-05T07:49:18.983Z,3.65
2022-08-05T07:51:54.038Z,3.40
2022-08-05T07:54:30.867Z,3.30
2022-08-05T07:57:17.890Z,3.28
2022-08-05T07:59:53.482Z,4.70
2022-08-05T08:02:26.695Z,3.40
2022-08-05T08:04:58.977Z,2.92
2022-08-05T08:07:28.466Z,3.08
2022-08-05T08:09:56.732Z,3.50
2022-08-05T08:12:35.287Z,3.00
2022-08-05T08:15:15.707Z,3.35
2022-08-05T08:17:52.664Z,3.40
2022-08-05T08:20:44.495Z,3.40
2022-08-05T08:24:03.268Z,3.47
2022-08-05T08:26:02.809Z,3.35
2022-08-05T08:28:35.580Z,3.50
2022-08-05T08:31:08.383Z,3.25
2022-08-05T08:33:38.321Z,3.47
2022-08-05T08:38:56.808Z,3.50
2022-08-05T08:41:50.656Z,3.53
2022-08-05T08:45:20.172Z,3.58
2022-08-05T08:47:22.180Z,3.47
2022-08-05T08:50:07.600Z,3.25
2022-08-05T08:53:01.731Z,3.45
2022-08-05T08:56:03.202Z,3.30
2022-08-05T08:58:37.181Z,3.53
2022-08-05T09:01:15.755Z,3.40
2022-08-05T09:03:54.411Z,3.35
2022-08-05T09:06:29.600Z,3.30
2022-08-05T09:09:02.145Z,3.30
2022-08-05T09:11:52.170Z,3.40
2022-08-05T09:14:57.115Z,3.40
2022-08-05T09:17:40.039Z,3.10
2022-08-05T09:23:05.585Z,3.35
2022-08-05T09:28:36.447Z,3.30
2022-08-05T09:31:18.178Z,3.17
2022-08-05T09:34:03.089Z,3.10
2022-08-05T09:36:56.257Z,2.90
2022-08-05T09:39:45.171Z,3.50
2022-08-05T09:42:24.219Z,3.40
2022-08-05T09:45:03.276Z,3.08
2022-08-05T09:47:55.079Z,3.40
2022-08-05T09:50:38.564Z,3.08
2022-08-05T09:53:22.969Z,3.30
2022-08-05T09:56:04.573Z,3.22
2022-08-05T09:58:32.914Z,3.30
2022-08-05T10:01:14.667Z,3.40
2022-08-05T10:04:00.690Z,3.03
2022-08-05T10:06:29.229Z,3.25
2022-08-05T10:09:25.087Z,3.13
2022-08-05T10:12:18.810Z,3.33
2022-08-05T10:15:21.749Z,3.47
2022-08-05T10:18:22.851Z,3.97
2022-08-05T10:20:59.822Z,3.63
2022-08-05T10:23:59.706Z,3.72
2022-08-05T10:26:32.735Z,3.50
2022-08-05T10:29:02.550Z,3.80
2022-08-05T10:32:54.909Z,4.03
2022-08-05T10:34:19.742Z,3.85
2022-08-05T10:36:54.037Z,4.30
2022-08-05T10:40:03.699Z,4.10
2022-08-05T10:42:33.837Z,4.13
2022-08-05T10:45:20.932Z,4.50
2022-08-05T10:48:29.948Z,4.03
2022-08-05T10:50:59.440Z,4.05
2022-08-05T10:53:51.238Z,4.63
2022-08-05T10:56:25.967Z,4.10
2022-08-05T10:58:53.909Z,3.97
2022-08-05T11:01:55.336Z,4.22
2022-08-05T11:04:26.124Z,4.13
2022-08-05T11:06:57.659Z,4.18
2022-08-05T11:09:39.080Z,4.72
2022-08-05T11:12:45.426Z,4.28
2022-08-05T11:15:20.401Z,4.40
2022-08-05T11:17:59.654Z,4.28
2022-08-05T11:20:47.346Z,4.13
2022-08-05T11:24:04.751Z,4.10
2022-08-05T11:26:33.056Z,4.38
2022-08-05T11:29:12.538Z,3.80
2022-08-05T11:31:56.231Z,3.90
2022-08-05T11:34:51.051Z,5.05
2022-08-05T11:38:26.348Z,4.50
2022-08-05T11:41:35.426Z,4.15
2022-08-05T11:44:04.682Z,4.18
2022-08-05T11:46:37.881Z,3.80
2022-08-05T11:49:25.395Z,4.63
2022-08-05T11:51:54.017Z,4.05
2022-08-05T11:54:33.175Z,4.50
2022-08-05T11:57:08.446Z,4.60
2022-08-05T11:59:52.230Z,4.18
2022-08-05T12:02:31.805Z,4.28
2022-08-05T12:05:06.936Z,4.05
2022-08-05T12:08:09.333Z,4.35
2022-08-05T12:10:39.076Z,4.53
2022-08-05T12:13:28.203Z,4.20
2022-08-05T12:16:14.600Z,4.40
2022-08-05T12:18:52.739Z,4.75
2022-08-05T12:21:29.881Z,4.75
2022-08-05T12:24:17.586Z,4.22
2022-08-05T12:26:50.138Z,4.40
2022-08-05T12:29:23.047Z,4.20
2022-08-05T12:32:02.150Z,4.40
2022-08-05T12:34:33.586Z,4.50
2022-08-05T12:37:30.136Z,4.78
2022-08-05T12:40:03.632Z,4.43
2022-08-05T12:42:39.616Z,5.07
2022-08-05T12:45:09.849Z,4.78
2022-08-05T12:47:38.590Z,5.50
2022-08-05T12:50:26.454Z,5.15
2022-08-05T12:52:59.893Z,4.55
2022-08-05T12:55:32.545Z,4.88
2022-08-05T12:58:39.149Z,5.15
2022-08-05T13:02:01.158Z,4.80
2022-08-05T13:03:41.924Z,4.68
2022-08-05T13:06:17.399Z,4.47
2022-08-05T13:08:52.316Z,5.05
2022-08-05T13:12:01.873Z,5.47
2022-08-05T13:14:24.925Z,5.00
2022-08-05T13:17:20.654Z,4.82
2022-08-05T13:20:19.161Z,5.35
2022-08-05T13:22:52.196Z,4.70
2022-08-05T13:25:21.909Z,5.32
2022-08-05T13:27:51.221Z,5.38
2022-08-05T13:30:33.512Z,5.30
2022-08-05T13:33:04.167Z,5.07
2022-08-05T13:35:47.406Z,5.32
2022-08-05T13:38:30.386Z,5.15
2022-08-05T13:41:00.259Z,5.20
2022-08-05T13:43:45.511Z,5.53
2022-08-05T13:46:16.538Z,5.20
2022-08-05T13:49:04.115Z,5.25
2022-08-05T13:51:36.436Z,5.40
2022-08-05T13:54:12.729Z,5.45
2022-08-05T13:56:51.005Z,5.88
2022-08-05T13:59:25.062Z,5.32
2022-08-05T14:01:57.784Z,5.55
2022-08-05T14:04:51.342Z,5.90
2022-08-05T14:07:25.399Z,6.13
2022-08-05T14:10:28.411Z,5.70
2022-08-05T14:12:57.770Z,5.75
2022-08-05T14:16:04.602Z,5.85
2022-08-05T14:18:17.591Z,6.10
2022-08-05T14:20:48.508Z,6.03
2022-08-05T14:23:24.663Z,5.70
2022-08-05T14:25:54.606Z,5.70
2022-08-05T14:28:30.927Z,5.80
2022-08-05T14:31:00.438Z,5.80
2022-08-05T14:33:57.059Z,5.95
2022-08-05T14:36:21.501Z,6.47
2022-08-05T14:38:51.229Z,6.20
2022-08-05T14:41:19.184Z,6.30
2022-08-05T14:43:53.805Z,6.15
2022-08-05T14:46:31.614Z,6.32
2022-08-05T14:49:07.317Z,6.10
2022-08-05T14:54:28.269Z,6.25
2022-08-05T14:56:55.942Z,5.90
2022-08-05T14:59:23.578Z,5.70
2022-08-05T15:01:51.358Z,5.72
2022-08-05T15:04:22.741Z,5.65
2022-08-05T15:06:53.714Z,6.68
2022-08-05T15:09:51.447Z,6.47
2022-08-05T15:12:11.476Z,6.78
2022-08-05T15:14:49.481Z,6.38
2022-08-05T15:20:17.119Z,6.05
2022-08-05T15:22:54.061Z,6.20
2022-08-05T15:25:41.103Z,6.00
2022-08-05T15:28:14.965Z,6.53
2022-08-05T15:30:45.634Z,5.70
2022-08-05T15:33:56.591Z,6.20
2022-08-05T15:36:04.691Z,6.13
2022-08-05T15:38:40.775Z,6.22
2022-08-05T15:41:21.998Z,6.60
2022-08-05T15:43:52.023Z,6.38
2022-08-05T15:46:24.024Z,6.63
2022-08-05T15:48:58.585Z,6.18
2022-08-05T15:52:09.705Z,6.65
2022-08-05T15:54:17.930Z,6.68
2022-08-05T15:56:45.528Z,7.70
2022-08-05T15:59:21.897Z,6.70
2022-08-05T16:01:52.551Z,7.03
2022-08-05T16:04:25.663Z,7.00
2022-08-05T16:06:56.840Z,6.15
2022-08-05T16:09:26.419Z,6.57
2022-08-05T16:11:54.369Z,7.03
2022-08-05T16:14:23.110Z,7.20
2022-08-05T16:16:50.871Z,6.75
2022-08-05T16:19:25.569Z,6.38
2022-08-05T16:22:07.190Z,6.40
2022-08-05T16:24:41.507Z,6.65
2022-08-05T16:27:19.484Z,7.00
2022-08-05T16:30:08.418Z,6.38
2022-08-05T16:32:54.637Z,6.32
2022-08-05T16:35:27.591Z,6.15
2022-08-05T16:38:15.524Z,6.45
2022-08-05T16:40:47.772Z,6.43
2022-08-05T16:43:23.714Z,5.97
2022-08-05T16:46:03.581Z,6.00
2022-08-05T16:48:38.530Z,6.40
2022-08-05T16:51:09.844Z,6.75
2022-08-05T16:54:02.866Z,7.30
2022-08-05T16:56:30.820Z,6.88
2022-08-05T16:59:00.908Z,7.00
2022-08-05T17:01:53.576Z,7.03
2022-08-05T17:04:26.633Z,6.57
2022-08-05T17:07:01.150Z,6.85
2022-08-05T17:09:31.030Z,7.20
2022-08-05T17:12:18.359Z,7.05
2022-08-05T17:14:50.684Z,7.55
2022-08-05T17:17:19.663Z,7.07
2022-08-05T17:19:53.898Z,7.30
2022-08-05T17:22:25.955Z,7.38
2022-08-05T17:25:00.107Z,6.88
2022-08-05T17:27:33.549Z,7.50
2022-08-05T17:32:31.950Z,9.13
2022-08-05T17:35:01.714Z,9.15
2022-08-05T17:37:41.814Z,8.20
2022-08-05T17:40:15.929Z,8.00
2022-08-05T17:42:51.035Z,8.88
2022-08-05T17:45:22.425Z,9.95
2022-08-05T17:47:56.202Z,9.13
2022-08-05T17:50:30.447Z,8.95
2022-08-05T17:53:00.392Z,9.13
2022-08-05T17:55:38.126Z,9.38
2022-08-05T17:58:13.627Z,8.85
2022-08-05T18:00:47.606Z,9.10
2022-08-05T18:03:56.576Z,8.40
2022-08-05T18:06:11.377Z,9.35
2022-08-05T18:08:45.072Z,9.75
2022-08-05T18:11:24.669Z,9.13
2022-08-05T18:13:57.512Z,8.70
2022-08-05T18:16:27.694Z,8.68
2022-08-05T18:18:55.340Z,9.52
2022-08-05T18:21:26.320Z,9.27
2022-08-05T18:23:56.204Z,9.70
2022-08-05T18:26:27.721Z,9.80
2022-08-05T18:28:58.219Z,10.43
2022-08-05T18:31:32.987Z,10.55
2022-08-05T18:34:05.971Z,9.50
2022-08-05T18:36:35.452Z,9.30
2022-08-05T18:39:22.194Z,9.55
2022-08-05T18:42:04.779Z,9.60
2022-08-05T18:44:49.202Z,9.88
2022-08-05T18:47:26.432Z,10.75
2022-08-05T18:50:15.673Z,10.68
2022-08-05T18:52:51.127Z,11.40
2022-08-05T18:55:21.486Z,11.52
2022-08-05T18:57:53.875Z,11.00
2022-08-05T19:00:28.670Z,11.98
2022-08-05T19:03:04.040Z,13.15
2022-08-05T19:06:11.758Z,12.95
2022-08-05T19:08:30.458Z,12.98
2022-08-05T19:10:59.671Z,12.93
2022-08-05T19:13:35.947Z,13.30
2022-08-05T19:16:25.116Z,12.95
2022-08-05T19:18:53.953Z,12.55
2022-08-05T19:21:25.214Z,13.75
2022-08-05T19:24:06.524Z,13.38
2022-08-05T19:26:54.460Z,13.23
2022-08-05T19:29:35.749Z,12.25
2022-08-05T19:32:11.134Z,12.45
2022-08-05T19:34:39.707Z,13.68
2022-08-05T19:37:08.342Z,13.35
2022-08-05T19:39:45.697Z,12.65
2022-08-05T19:42:34.991Z,14.95
2022-08-05T19:45:05.975Z,13.18
2022-08-05T19:47:37.449Z,12.32
2022-08-05T19:50:07.788Z,12.85
2022-08-05T19:52:38.951Z,12.30
2022-08-05T19:56:11.356Z,12.98
2022-08-05T19:58:19.454Z,13.30
2022-08-05T20:00:43.210Z,13.85
2022-08-05T20:03:11.400Z,12.80
2022-08-05T20:05:50.343Z,12.40
2022-08-05T20:08:20.346Z,12.77
2022-08-05T20:10:49.592Z,14.15
2022-08-05T20:13:18.305Z,13.27
2022-08-05T20:15:57.928Z,13.07
2022-08-05T20:18:32.876Z,13.63
2022-08-05T20:21:04.622Z,13.02
2022-08-05T20:23:40.384Z,13.68
2022-08-05T20:26:24.857Z,14.10
2022-08-05T20:28:56.246Z,14.43
2022-08-05T20:31:36.880Z,13.90
2022-08-05T20:34:11.595Z,14.60
2022-08-05T20:36:43.249Z,14.85
2022-08-05T20:39:13.052Z,13.25
2022-08-05T20:41:43.370Z,13.43
2022-08-05T20:44:17.118Z,12.27
2022-08-05T20:46:48.170Z,13.73
2022-08-05T20:49:18.406Z,13.15
2022-08-05T20:51:53.682Z,13.95
2022-08-05T20:54:55.193Z,13.90
2022-08-05T20:57:24.821Z,14.77
2022-08-05T21:00:20.960Z,14.88
2022-08-05T21:02:57.757Z,15.30
2022-08-05T21:05:25.652Z,14.57
2022-08-05T21:08:06.314Z,18.20
2022-08-05T21:10:34.196Z,17.55
2022-08-05T21:13:12.199Z,16.40
2022-08-05T21:15:51.073Z,15.88
2022-08-05T21:20:51.318Z,16.60
2022-08-05T21:23:18.882Z,16.10
2022-08-05T21:25:46.590Z,15.70
2022-08-05T21:28:18.471Z,17.38
2022-08-05T21:30:46.419Z,17.73
2022-08-05T21:33:22.048Z,18.52
2022-08-05T21:35:58.499Z,20.35
2022-08-05T21:38:27.803Z,20.10
2022-08-05T21:40:55.903Z,19.20
2022-08-05T21:43:24.154Z,20.50
2022-08-05T21:45:57.727Z,19.48
2022-08-05T21:48:29.195Z,19.88
2022-08-05T21:50:59.459Z,20.13
2022-08-05T21:53:27.898Z,20.85
2022-08-05T21:56:06.030Z,21.55
2022-08-05T21:58:48.448Z,20.48
2022-08-05T22:01:26.763Z,21.00
2022-08-05T22:03:54.779Z,21.52
2022-08-05T22:06:35.548Z,21.90
2022-08-05T22:09:14.549Z,23.20
2022-08-05T22:11:46.932Z,25.90
2022-08-05T22:14:31.341Z,26.02
2022-08-05T22:17:05.042Z,25.83
2022-08-05T22:20:02.938Z,24.10
2022-08-05T22:22:27.590Z,24.27
2022-08-05T22:25:18.213Z,22.85
2022-08-05T22:28:10.746Z,21.20
2022-08-05T22:30:55.914Z,20.88
2022-08-05T22:33:58.635Z,19.98
2022-08-05T22:36:15.041Z,19.83
2022-08-05T22:38:48.133Z,18.17
2022-08-05T22:41:26.363Z,18.27
2022-08-05T22:44:08.634Z,17.98
2022-08-05T22:46:40.275Z,16.85
2022-08-05T22:50:17.576Z,15.45
2022-08-05T22:52:04.644Z,16.17
2022-08-05T22:54:36.551Z,15.55
2022-08-05T22:57:06.260Z,15.50
2022-08-05T22:59:45.130Z,15.70
2022-08-05T23:02:13.779Z,15.77
2022-08-05T23:04:51.680Z,15.35
2022-08-05T23:07:22.226Z,15.32
2022-08-05T23:09:57.897Z,15.15
2022-08-05T23:12:32.546Z,15.93
2022-08-05T23:15:03.416Z,15.95
2022-08-05T23:17:37.975Z,16.25
2022-08-05T23:20:21.231Z,16.40
2022-08-05T23:22:55.662Z,18.00
2022-08-05T23:25:52.394Z,16.75
2022-08-05T23:28:13.189Z,17.02
2022-08-05T23:30:44.104Z,15.75
2022-08-05T23:33:26.434Z,15.55
2022-08-05T23:36:10.827Z,16.13
2022-08-05T23:38:42.770Z,16.27
2022-08-05T23:41:11.116Z,15.35
2022-08-05T23:44:05.029Z,15.70
2022-08-05T23:46:26.869Z,15.20
2022-08-05T23:49:01.228Z,14.90
2022-08-05T23:51:53.605Z,15.10
2022-08-05T23:54:36.714Z,15.27
2022-08-05T23:57:07.221Z,15.73
